createdAt,value
2018-06-27T00:00:00.572Z,3.77
2018-06-27T00:02:29.230Z,3.40
2018-06-27T00:04:57.929Z,3.60
2018-06-27T00:07:26.633Z,3.33
2018-06-27T00:09:55.877Z,4.33
2018-06-27T00:12:24.636Z,3.87
2018-06-27T00:14:53.137Z,4.23
2018-06-27T00:17:21.362Z,4.00
2018-06-27T00:19:49.877Z,3.87
2018-06-27T00:22:18.423Z,3.57
2018-06-27T00:24:46.940Z,3.83
2018-06-27T00:27:16.089Z,3.77
2018-06-27T00:29:45.285Z,4.17
2018-06-27T00:32:13.838Z,4.23
2018-06-27T00:34:42.342Z,3.90
2018-06-27T00:37:10.866Z,3.77
2018-06-27T00:39:39.418Z,3.70
2018-06-27T00:42:07.949Z,4.10
2018-06-27T00:44:36.505Z,3.63
2018-06-27T00:47:05.241Z,2.80
2018-06-27T00:49:33.457Z,3.90
2018-06-27T00:52:01.966Z,3.67
2018-06-27T00:54:30.509Z,3.60
2018-06-27T00:56:59.000Z,4.73
2018-06-27T00:59:27.538Z,3.87
2018-06-27T01:01:56.069Z,3.90
2018-06-27T01:04:24.601Z,3.57
2018-06-27T01:06:53.117Z,3.83
2018-06-27T01:09:21.667Z,3.60
2018-06-27T01:12:01.004Z,3.23
2018-06-27T01:14:30.465Z,3.60
2018-06-27T01:16:58.993Z,3.20
2018-06-27T01:19:27.609Z,3.50
2018-06-27T01:21:56.654Z,3.60
2018-06-27T01:24:25.697Z,2.93
2018-06-27T01:26:54.921Z,3.60
2018-06-27T01:29:24.065Z,2.90
2018-06-27T01:31:52.620Z,3.50
2018-06-27T01:34:21.208Z,3.43
2018-06-27T01:36:49.741Z,3.20
2018-06-27T01:39:18.292Z,3.43
2018-06-27T01:41:47.298Z,3.60
2018-06-27T01:44:15.824Z,3.50
2018-06-27T01:46:44.346Z,3.60
2018-06-27T01:49:13.963Z,3.50
2018-06-27T01:51:42.487Z,3.33
2018-06-27T01:54:11.328Z,3.50
2018-06-27T01:56:40.837Z,3.47
2018-06-27T01:59:10.850Z,3.40
2018-06-27T02:01:39.944Z,3.43
2018-06-27T02:04:08.486Z,3.97
2018-06-27T02:06:38.294Z,2.93
2018-06-27T02:09:07.825Z,3.80
2018-06-27T02:11:36.337Z,3.67
2018-06-27T02:14:04.895Z,3.40
2018-06-27T02:16:33.914Z,3.03
2018-06-27T02:19:02.448Z,3.70
2018-06-27T02:21:31.039Z,3.30
2018-06-27T02:23:59.602Z,3.40
2018-06-27T02:26:28.137Z,3.80
2018-06-27T02:28:56.773Z,3.53
2018-06-27T02:31:25.355Z,3.07
2018-06-27T02:33:53.928Z,3.30
2018-06-27T02:36:22.183Z,3.27
2018-06-27T02:38:50.757Z,3.30
2018-06-27T02:41:19.370Z,3.83
2018-06-27T02:43:47.942Z,3.30
2018-06-27T02:46:16.549Z,3.43
2018-06-27T02:48:44.723Z,3.07
2018-06-27T02:51:13.318Z,3.33
2018-06-27T02:53:41.522Z,3.10
2018-06-27T02:56:11.561Z,3.37
2018-06-27T02:58:40.112Z,3.30
2018-06-27T03:01:08.702Z,3.37
2018-06-27T03:03:37.282Z,3.40
2018-06-27T03:06:06.126Z,3.70
2018-06-27T03:08:34.682Z,3.67
2018-06-27T03:11:03.253Z,3.23
2018-06-27T03:13:31.849Z,3.37
2018-06-27T03:16:00.477Z,3.37
2018-06-27T03:18:29.042Z,3.83
2018-06-27T03:20:57.829Z,3.40
2018-06-27T03:23:26.992Z,3.73
2018-06-27T03:25:55.585Z,3.23
2018-06-27T03:28:24.169Z,3.70
2018-06-27T03:30:52.746Z,3.40
2018-06-27T03:33:21.300Z,3.40
2018-06-27T03:35:49.889Z,3.30
2018-06-27T03:38:18.125Z,3.40
2018-06-27T03:40:46.683Z,3.60
2018-06-27T03:43:15.253Z,3.60
2018-06-27T03:45:43.802Z,3.07
2018-06-27T03:48:12.388Z,3.90
2018-06-27T03:50:40.945Z,3.00
2018-06-27T03:53:09.516Z,3.20
2018-06-27T03:55:38.649Z,3.47
2018-06-27T03:58:07.217Z,3.53
2018-06-27T04:00:35.761Z,3.70
2018-06-27T04:03:04.766Z,3.57
2018-06-27T04:05:33.330Z,4.17
2018-06-27T04:08:02.685Z,4.50
2018-06-27T04:10:31.260Z,3.90
2018-06-27T04:12:59.880Z,4.00
2018-06-27T04:15:28.445Z,3.77
2018-06-27T04:17:57.065Z,3.83
2018-06-27T04:20:25.638Z,4.27
2018-06-27T04:22:54.219Z,4.07
2018-06-27T04:25:22.794Z,3.77
2018-06-27T04:27:51.317Z,3.40
2018-06-27T04:30:20.193Z,4.17
2018-06-27T04:32:49.434Z,3.50
2018-06-27T04:35:17.999Z,3.83
2018-06-27T04:37:46.545Z,4.00
2018-06-27T04:40:15.682Z,3.50
2018-06-27T04:42:44.198Z,3.63
2018-06-27T04:45:12.746Z,3.93
2018-06-27T04:47:41.262Z,4.23
2018-06-27T04:50:09.837Z,4.10
2018-06-27T04:52:38.398Z,4.50
2018-06-27T04:55:06.949Z,4.30
2018-06-27T04:57:35.165Z,4.13
2018-06-27T05:00:03.790Z,4.77
2018-06-27T05:02:33.019Z,4.97
2018-06-27T05:05:02.597Z,5.83
2018-06-27T05:07:38.658Z,5.83
2018-06-27T05:10:09.204Z,7.37
2018-06-27T05:12:38.502Z,6.67
2018-06-27T05:15:06.695Z,6.77
2018-06-27T05:17:35.356Z,6.33
2018-06-27T05:20:05.935Z,6.03
2018-06-27T05:22:34.531Z,6.23
2018-06-27T05:25:03.842Z,6.07
2018-06-27T05:27:33.340Z,6.37
2018-06-27T05:30:05.142Z,5.23
2018-06-27T05:32:33.831Z,4.90
2018-06-27T05:35:02.648Z,4.57
2018-06-27T05:37:31.202Z,4.20
2018-06-27T05:40:00.482Z,4.27
2018-06-27T05:42:29.102Z,4.30
2018-06-27T05:44:57.316Z,4.67
2018-06-27T05:47:25.919Z,3.93
2018-06-27T05:49:54.556Z,3.73
2018-06-27T05:52:23.115Z,3.73
2018-06-27T05:54:57.025Z,4.53
2018-06-27T05:57:28.246Z,3.77
2018-06-27T05:59:56.985Z,4.50
2018-06-27T06:02:26.180Z,3.93
2018-06-27T06:04:55.042Z,3.80
2018-06-27T06:07:24.196Z,4.00
2018-06-27T06:09:52.875Z,3.30
2018-06-27T06:12:21.570Z,3.77
2018-06-27T06:14:50.146Z,3.53
2018-06-27T06:17:18.834Z,3.90
2018-06-27T06:19:48.490Z,3.47
2018-06-27T06:22:17.680Z,3.30
2018-06-27T06:24:46.813Z,3.80
2018-06-27T06:27:17.562Z,3.07
2018-06-27T06:29:46.499Z,2.57
2018-06-27T06:32:15.625Z,3.00
2018-06-27T06:34:44.217Z,3.07
2018-06-27T06:37:12.848Z,2.47
2018-06-27T06:39:41.477Z,3.33
2018-06-27T06:42:10.112Z,2.93
2018-06-27T06:44:39.642Z,3.00
2018-06-27T06:47:08.545Z,3.00
2018-06-27T06:49:38.827Z,2.90
2018-06-27T06:52:07.465Z,3.50
2018-06-27T06:54:36.619Z,2.87
2018-06-27T06:57:05.785Z,2.67
2018-06-27T06:59:34.094Z,2.53
2018-06-27T07:02:02.700Z,2.90
2018-06-27T07:04:31.385Z,3.00
2018-06-27T07:07:00.486Z,3.17
2018-06-27T07:09:30.301Z,3.20
2018-06-27T07:12:04.315Z,2.90
2018-06-27T07:14:36.600Z,2.60
2018-06-27T07:17:05.327Z,2.73
2018-06-27T07:19:33.965Z,2.50
2018-06-27T07:22:04.481Z,2.80
2018-06-27T07:24:33.763Z,2.60
2018-06-27T07:27:02.423Z,2.53
2018-06-27T07:29:31.098Z,2.87
2018-06-27T07:31:59.328Z,2.73
2018-06-27T07:34:28.201Z,2.20
2018-06-27T07:36:59.734Z,2.93
2018-06-27T07:39:28.438Z,2.40
2018-06-27T07:41:57.150Z,2.60
2018-06-27T07:44:26.471Z,2.60
2018-06-27T07:46:55.178Z,2.47
2018-06-27T07:49:23.425Z,2.70
2018-06-27T07:51:52.066Z,2.90
2018-06-27T07:54:20.661Z,2.90
2018-06-27T07:56:49.342Z,2.67
2018-06-27T07:59:17.925Z,2.47
2018-06-27T08:01:46.563Z,2.70
2018-06-27T08:04:15.159Z,2.43
2018-06-27T08:06:45.970Z,2.97
2018-06-27T08:09:14.612Z,3.00
2018-06-27T08:11:43.857Z,2.80
2018-06-27T08:14:12.714Z,2.70
2018-06-27T08:16:41.388Z,2.80
2018-06-27T08:19:09.971Z,2.90
2018-06-27T08:21:38.593Z,2.77
2018-06-27T08:24:07.191Z,2.73
2018-06-27T08:26:35.740Z,2.73
2018-06-27T08:29:04.577Z,2.73
2018-06-27T08:31:33.200Z,2.87
2018-06-27T08:34:01.484Z,2.77
2018-06-27T08:36:33.355Z,2.60
2018-06-27T08:39:01.971Z,2.60
2018-06-27T08:41:30.630Z,2.43
2018-06-27T08:43:59.261Z,2.50
2018-06-27T08:46:28.581Z,2.50
2018-06-27T08:48:57.613Z,2.57
2018-06-27T08:51:26.189Z,2.50
2018-06-27T08:53:55.282Z,2.70
2018-06-27T08:56:25.210Z,2.60
2018-06-27T08:58:54.495Z,3.30
2018-06-27T09:01:23.047Z,2.90
2018-06-27T09:03:51.761Z,2.33
2018-06-27T09:06:20.417Z,2.83
2018-06-27T09:08:49.129Z,2.87
2018-06-27T09:11:18.317Z,2.87
2018-06-27T09:13:46.939Z,2.33
2018-06-27T09:16:15.538Z,3.30
2018-06-27T09:18:44.129Z,2.90
2018-06-27T09:21:12.859Z,2.57
2018-06-27T09:23:41.471Z,2.70
2018-06-27T09:26:10.250Z,2.87
2018-06-27T09:28:38.813Z,2.83
2018-06-27T09:31:07.108Z,2.97
2018-06-27T09:33:36.384Z,2.60
2018-06-27T09:36:05.181Z,2.67
2018-06-27T09:38:33.812Z,3.07
2018-06-27T09:41:02.358Z,2.60
2018-06-27T09:43:31.301Z,3.00
2018-06-27T09:46:00.350Z,2.90
2018-06-27T09:48:28.588Z,3.30
2018-06-27T09:50:57.157Z,2.93
2018-06-27T09:53:25.991Z,3.20
2018-06-27T09:55:54.598Z,3.13
2018-06-27T09:58:23.530Z,3.03
2018-06-27T10:00:52.169Z,3.00
2018-06-27T10:03:20.782Z,2.33
2018-06-27T10:05:49.307Z,3.10
2018-06-27T10:08:17.882Z,2.60
2018-06-27T10:10:47.368Z,2.80
2018-06-27T10:13:16.147Z,2.60
2018-06-27T10:15:44.806Z,3.47
2018-06-27T10:18:13.482Z,2.67
2018-06-27T10:20:41.902Z,2.63
2018-06-27T10:23:10.496Z,2.80
2018-06-27T10:25:39.088Z,2.70
2018-06-27T10:28:08.457Z,2.47
2018-06-27T10:30:37.260Z,2.47
2018-06-27T10:33:05.909Z,2.90
2018-06-27T10:35:35.751Z,2.90
2018-06-27T10:38:04.949Z,3.30
2018-06-27T10:40:33.549Z,2.10
2018-06-27T10:43:02.185Z,2.20
2018-06-27T10:45:30.393Z,2.63
2018-06-27T10:48:00.219Z,2.70
2018-06-27T10:50:33.528Z,2.17
2018-06-27T10:53:02.201Z,2.13
2018-06-27T10:55:37.274Z,1.90
2018-06-27T10:58:09.204Z,2.33
2018-06-27T11:00:45.008Z,2.50
2018-06-27T11:03:19.205Z,2.10
2018-06-27T11:05:48.716Z,1.80
2018-06-27T11:08:17.659Z,2.10
2018-06-27T11:10:46.216Z,2.10
2018-06-27T11:13:17.726Z,1.77
2018-06-27T11:15:49.554Z,2.10
2018-06-27T11:18:19.351Z,1.97
2018-06-27T11:20:47.969Z,1.70
2018-06-27T11:23:16.572Z,1.70
2018-06-27T11:25:45.338Z,1.40
2018-06-27T11:28:13.936Z,1.60
2018-06-27T11:30:43.225Z,1.60
2018-06-27T11:33:11.810Z,1.60
2018-06-27T11:35:40.753Z,1.77
2018-06-27T11:38:09.338Z,1.70
2018-06-27T11:40:38.201Z,1.47
2018-06-27T11:43:06.999Z,1.80
2018-06-27T11:45:35.587Z,1.70
2018-06-27T11:48:04.222Z,1.70
2018-06-27T11:50:32.866Z,1.57
2018-06-27T11:53:01.922Z,1.47
2018-06-27T11:55:30.653Z,1.47
2018-06-27T11:57:59.229Z,1.73
2018-06-27T12:00:28.570Z,1.50
2018-06-27T12:02:58.525Z,1.57
2018-06-27T12:05:27.209Z,1.53
2018-06-27T12:07:57.803Z,1.40
2018-06-27T12:10:27.985Z,1.60
2018-06-27T12:12:56.613Z,1.80
2018-06-27T12:15:25.113Z,1.53
2018-06-27T12:17:53.703Z,1.47
2018-06-27T12:20:22.407Z,1.30
2018-06-27T12:22:51.816Z,1.30
2018-06-27T12:25:20.447Z,1.40
2018-06-27T12:27:49.652Z,1.40
2018-06-27T12:30:21.845Z,1.23
2018-06-27T12:32:50.948Z,1.30
2018-06-27T12:35:20.491Z,1.70
2018-06-27T12:37:48.873Z,1.10
2018-06-27T12:40:18.082Z,1.27
2018-06-27T12:42:46.281Z,1.67
2018-06-27T12:45:14.922Z,1.37
2018-06-27T12:47:43.993Z,1.27
2018-06-27T12:50:12.675Z,1.30
2018-06-27T12:52:41.583Z,1.60
2018-06-27T12:55:12.142Z,1.20
2018-06-27T12:57:40.826Z,1.20
2018-06-27T13:00:10.505Z,1.20
2018-06-27T13:02:39.048Z,1.07
2018-06-27T13:05:08.591Z,1.10
2018-06-27T13:07:37.439Z,1.20
2018-06-27T13:10:06.360Z,1.23
2018-06-27T13:12:34.994Z,1.23
2018-06-27T13:15:03.811Z,1.30
2018-06-27T13:17:32.390Z,1.00
2018-06-27T13:20:00.686Z,1.13
2018-06-27T13:22:29.606Z,1.17
2018-06-27T13:24:58.137Z,1.40
2018-06-27T13:27:26.768Z,1.10
2018-06-27T13:29:55.373Z,1.00
2018-06-27T13:32:23.975Z,0.97
2018-06-27T13:34:52.637Z,1.23
2018-06-27T13:37:21.218Z,1.20
2018-06-27T13:39:49.826Z,1.00
2018-06-27T13:42:18.406Z,1.40
2018-06-27T13:44:47.039Z,1.20
2018-06-27T13:47:15.624Z,1.37
2018-06-27T13:49:44.221Z,1.30
2018-06-27T13:52:12.853Z,1.40
2018-06-27T13:54:43.913Z,1.20
2018-06-27T13:57:12.482Z,1.60
2018-06-27T13:59:41.110Z,1.43
2018-06-27T14:02:09.686Z,1.50
2018-06-27T14:04:38.234Z,1.50
2018-06-27T14:07:07.325Z,1.70
2018-06-27T14:09:35.882Z,1.70
2018-06-27T14:12:04.481Z,1.40
2018-06-27T14:14:33.145Z,1.50
2018-06-27T14:17:01.714Z,1.43
2018-06-27T14:19:30.238Z,1.63
2018-06-27T14:21:58.863Z,1.60
2018-06-27T14:24:27.885Z,1.83
2018-06-27T14:26:56.458Z,1.40
2018-06-27T14:29:25.018Z,1.43
2018-06-27T14:31:53.229Z,1.60
2018-06-27T14:34:21.757Z,1.50
2018-06-27T14:36:50.329Z,1.40
2018-06-27T14:39:18.891Z,1.27
2018-06-27T14:41:47.576Z,2.10
2018-06-27T14:44:16.115Z,0.93
2018-06-27T14:46:44.687Z,1.40
2018-06-27T14:49:13.255Z,1.10
2018-06-27T14:51:41.865Z,1.40
2018-06-27T14:54:10.118Z,1.27
2018-06-27T14:56:38.722Z,1.23
2018-06-27T14:59:07.354Z,1.10
2018-06-27T15:01:36.574Z,1.20
2018-06-27T15:04:05.699Z,1.43
2018-06-27T15:06:34.261Z,1.37
2018-06-27T15:09:03.798Z,1.30
2018-06-27T15:11:32.326Z,1.50
2018-06-27T15:14:00.878Z,1.13
2018-06-27T15:16:29.097Z,1.30
2018-06-27T15:18:57.638Z,1.30
2018-06-27T15:21:26.920Z,1.40
2018-06-27T15:23:55.504Z,1.23
2018-06-27T15:26:24.033Z,1.67
2018-06-27T15:28:52.635Z,1.47
2018-06-27T15:31:21.175Z,1.80
2018-06-27T15:33:49.403Z,1.70
2018-06-27T15:36:17.975Z,1.90
2018-06-27T15:38:46.559Z,1.70
2018-06-27T15:41:15.810Z,2.33
2018-06-27T15:43:44.781Z,1.83
2018-06-27T15:46:13.352Z,2.27
2018-06-27T15:48:41.874Z,2.10
2018-06-27T15:51:10.430Z,2.50
2018-06-27T15:53:38.970Z,2.33
2018-06-27T15:56:07.512Z,2.47
2018-06-27T15:58:36.080Z,2.50
2018-06-27T16:01:04.666Z,2.70
2018-06-27T16:03:33.217Z,2.57
2018-06-27T16:06:02.448Z,2.37
2018-06-27T16:08:31.645Z,2.50
2018-06-27T16:11:00.206Z,2.20
2018-06-27T16:13:28.734Z,2.60
2018-06-27T16:15:56.980Z,2.73
2018-06-27T16:18:25.514Z,2.33
2018-06-27T16:20:53.742Z,2.30
2018-06-27T16:23:22.255Z,2.57
2018-06-27T16:25:50.866Z,2.30
2018-06-27T16:28:19.473Z,2.83
2018-06-27T16:30:48.385Z,1.97
2018-06-27T16:33:16.946Z,2.50
2018-06-27T16:35:45.524Z,2.20
2018-06-27T16:38:14.072Z,2.20
2018-06-27T16:40:42.643Z,2.37
2018-06-27T16:43:11.880Z,2.40
2018-06-27T16:45:40.414Z,2.10
2018-06-27T16:48:09.707Z,2.40
2018-06-27T16:50:39.004Z,2.50
2018-06-27T16:53:07.522Z,2.20
2018-06-27T16:55:35.749Z,2.20
2018-06-27T16:58:04.383Z,2.87
2018-06-27T17:00:33.213Z,2.00
2018-06-27T17:03:01.954Z,2.50
2018-06-27T17:05:30.633Z,2.37
2018-06-27T17:07:59.278Z,2.27
2018-06-27T17:10:28.214Z,2.10
2018-06-27T17:12:57.579Z,2.27
2018-06-27T17:15:26.305Z,2.10
2018-06-27T17:17:55.140Z,1.93
2018-06-27T17:20:24.261Z,2.20
2018-06-27T17:22:52.837Z,1.80
2018-06-27T17:25:22.120Z,1.97
2018-06-27T17:27:51.466Z,1.70
2018-06-27T17:30:20.767Z,2.00
2018-06-27T17:32:49.309Z,1.40
2018-06-27T17:35:17.906Z,1.90
2018-06-27T17:37:46.553Z,1.87
2018-06-27T17:40:15.102Z,1.67
2018-06-27T17:42:43.869Z,1.50
2018-06-27T17:45:12.078Z,1.80
2018-06-27T17:47:40.690Z,1.30
2018-06-27T17:50:08.900Z,1.40
2018-06-27T17:52:37.529Z,1.60
2018-06-27T17:55:06.110Z,1.40
2018-06-27T17:57:35.357Z,1.40
2018-06-27T18:00:04.960Z,1.40
2018-06-27T18:02:33.617Z,1.80
2018-06-27T18:05:02.197Z,1.23
2018-06-27T18:07:31.122Z,1.30
2018-06-27T18:09:59.738Z,1.50
2018-06-27T18:12:28.509Z,1.33
2018-06-27T18:14:57.090Z,1.20
2018-06-27T18:17:25.727Z,1.20
2018-06-27T18:19:54.488Z,1.10
2018-06-27T18:22:23.134Z,1.47
2018-06-27T18:24:51.748Z,1.53
2018-06-27T18:27:20.346Z,1.10
2018-06-27T18:29:48.885Z,1.30
2018-06-27T18:32:17.107Z,1.00
2018-06-27T18:34:45.642Z,1.73
2018-06-27T18:37:13.909Z,1.27
2018-06-27T18:39:42.434Z,1.30
2018-06-27T18:42:10.977Z,1.10
2018-06-27T18:44:39.171Z,1.30
2018-06-27T18:47:07.711Z,1.20
2018-06-27T18:49:36.258Z,1.50
2018-06-27T18:52:04.870Z,1.13
2018-06-27T18:54:33.449Z,1.10
2018-06-27T18:57:02.011Z,1.10
2018-06-27T18:59:30.517Z,1.30
2018-06-27T19:01:59.109Z,1.13
2018-06-27T19:04:28.660Z,1.23
2018-06-27T19:06:56.905Z,1.20
2018-06-27T19:09:25.448Z,1.30
2018-06-27T19:11:54.038Z,1.37
2018-06-27T19:14:22.585Z,1.30
2018-06-27T19:16:51.169Z,1.70
2018-06-27T19:19:19.737Z,1.27
2018-06-27T19:21:48.337Z,1.50
2018-06-27T19:24:16.790Z,1.90
2018-06-27T19:26:45.937Z,6.07
2018-06-27T19:29:14.550Z,2.20
2018-06-27T19:31:43.146Z,2.20
2018-06-27T19:34:11.926Z,1.97
2018-06-27T19:36:40.484Z,1.40
2018-06-27T19:39:10.845Z,2.20
2018-06-27T19:41:39.905Z,1.60
2018-06-27T19:44:09.154Z,1.63
2018-06-27T19:46:37.711Z,1.93
2018-06-27T19:49:06.549Z,2.30
2018-06-27T19:51:35.211Z,1.40
2018-06-27T19:54:04.538Z,1.57
2018-06-27T19:56:33.118Z,1.30
2018-06-27T19:59:01.357Z,1.80
2018-06-27T20:01:29.980Z,1.20
2018-06-27T20:03:58.281Z,1.83
2018-06-27T20:06:26.969Z,1.53
2018-06-27T20:08:56.467Z,1.70
2018-06-27T20:11:25.790Z,1.47
2018-06-27T20:13:54.409Z,1.20
2018-06-27T20:16:23.075Z,1.60
2018-06-27T20:18:51.616Z,1.00
2018-06-27T20:21:19.895Z,1.70
2018-06-27T20:23:48.466Z,1.43
2018-06-27T20:26:16.704Z,1.40
2018-06-27T20:28:45.527Z,1.57
2018-06-27T20:31:15.078Z,1.40
2018-06-27T20:33:43.610Z,1.03
2018-06-27T20:36:12.319Z,1.53
2018-06-27T20:38:41.165Z,2.00
2018-06-27T20:41:09.880Z,2.33
2018-06-27T20:43:38.457Z,2.73
2018-06-27T20:46:07.726Z,2.40
2018-06-27T20:48:36.922Z,2.10
2018-06-27T20:51:05.565Z,2.17
2018-06-27T20:53:33.788Z,2.20
2018-06-27T20:56:02.400Z,2.47
2018-06-27T20:58:30.987Z,2.70
2018-06-27T21:00:59.617Z,2.50
2018-06-27T21:03:28.787Z,2.37
2018-06-27T21:05:57.661Z,2.43
2018-06-27T21:08:26.225Z,2.30
2018-06-27T21:10:54.896Z,2.50
2018-06-27T21:13:23.612Z,2.00
2018-06-27T21:15:52.762Z,1.90
2018-06-27T21:18:21.320Z,1.90
2018-06-27T21:20:50.188Z,2.40
2018-06-27T21:23:18.734Z,2.90
2018-06-27T21:25:47.290Z,3.00
2018-06-27T21:28:15.529Z,2.30
2018-06-27T21:30:44.162Z,1.90
2018-06-27T21:33:12.713Z,2.20
2018-06-27T21:35:42.197Z,2.20
2018-06-27T21:38:11.316Z,2.20
2018-06-27T21:40:40.784Z,2.03
2018-06-27T21:43:09.352Z,2.73
2018-06-27T21:45:38.545Z,2.33
2018-06-27T21:48:07.082Z,2.63
2018-06-27T21:50:35.608Z,3.70
2018-06-27T21:53:04.178Z,2.50
2018-06-27T21:55:32.794Z,2.50
2018-06-27T21:58:01.396Z,2.60
2018-06-27T22:00:31.966Z,3.00
2018-06-27T22:03:00.752Z,2.77
2018-06-27T22:05:29.263Z,2.57
2018-06-27T22:07:57.832Z,2.80
2018-06-27T22:10:26.386Z,2.80
2018-06-27T22:12:55.558Z,2.90
2018-06-27T22:15:24.198Z,2.90
2018-06-27T22:17:52.770Z,2.70
2018-06-27T22:20:27.693Z,2.60
2018-06-27T22:22:56.242Z,2.60
2018-06-27T22:25:24.863Z,2.83
2018-06-27T22:27:54.147Z,3.10
2018-06-27T22:30:22.689Z,2.93
2018-06-27T22:32:51.907Z,3.13
2018-06-27T22:35:20.454Z,2.50
2018-06-27T22:37:48.642Z,2.67
2018-06-27T22:40:17.679Z,2.67
2018-06-27T22:42:46.266Z,2.70
2018-06-27T22:45:14.809Z,2.90
2018-06-27T22:47:43.327Z,3.10
2018-06-27T22:50:12.455Z,3.03
2018-06-27T22:52:41.004Z,2.93
2018-06-27T22:55:09.574Z,2.97
2018-06-27T22:57:38.185Z,3.40
2018-06-27T23:00:07.490Z,3.33
2018-06-27T23:02:36.013Z,2.73
2018-06-27T23:05:04.702Z,2.57
2018-06-27T23:07:33.277Z,2.40
2018-06-27T23:10:01.702Z,2.50
2018-06-27T23:12:30.243Z,2.57
2018-06-27T23:14:58.755Z,3.43
2018-06-27T23:17:27.339Z,2.77
2018-06-27T23:19:55.886Z,2.20
2018-06-27T23:22:29.747Z,2.63
2018-06-27T23:24:58.283Z,2.83
2018-06-27T23:27:26.494Z,2.20
2018-06-27T23:29:55.178Z,3.10
2018-06-27T23:32:23.779Z,3.70
2018-06-27T23:34:52.314Z,3.70
2018-06-27T23:37:20.548Z,3.13
2018-06-27T23:39:49.098Z,2.80
2018-06-27T23:42:17.668Z,3.53
2018-06-27T23:44:46.390Z,2.93
2018-06-27T23:47:14.970Z,2.60
2018-06-27T23:49:43.613Z,2.60
2018-06-27T23:52:12.215Z,2.73
2018-06-27T23:54:40.759Z,2.60
2018-06-27T23:57:09.297Z,2.50
2018-06-27T23:59:37.934Z,3.00
